createdAt,value
2022-11-07T00:01:22.308Z,78.70
2022-11-07T00:03:49.298Z,78.70
2022-11-07T00:06:16.029Z,78.80
2022-11-07T00:08:42.667Z,79.00
2022-11-07T00:11:09.289Z,78.60
2022-11-07T00:13:35.921Z,78.90
2022-11-07T00:16:10.608Z,78.70
2022-11-07T00:18:38.065Z,78.80
2022-11-07T00:21:07.276Z,78.30
2022-11-07T00:23:33.969Z,78.40
2022-11-07T00:26:05.719Z,78.20
2022-11-07T00:28:37.315Z,78.80
2022-11-07T00:31:05.779Z,78.50
2022-11-07T00:33:32.750Z,78.60
2022-11-07T00:35:59.579Z,79.20
2022-11-07T00:38:26.536Z,79.50
2022-11-07T00:40:57.889Z,79.80
2022-11-07T00:43:25.121Z,80.10
2022-11-07T00:45:51.789Z,79.90
2022-11-07T00:48:18.892Z,79.60
2022-11-07T00:50:45.897Z,80.70
2022-11-07T00:53:12.952Z,80.50
2022-11-07T00:55:39.820Z,79.90
2022-11-07T00:58:09.864Z,80.10
2022-11-07T01:00:40.155Z,79.70
2022-11-07T01:03:25.252Z,80.30
2022-11-07T01:06:02.935Z,79.70
2022-11-07T01:08:30.399Z,79.60
2022-11-07T01:10:58.142Z,80.50
2022-11-07T01:13:25.725Z,81.00
2022-11-07T01:15:52.797Z,80.30
2022-11-07T01:18:19.819Z,80.10
2022-11-07T01:20:46.714Z,80.00
2022-11-07T01:23:13.770Z,80.20
2022-11-07T01:25:40.923Z,79.60
2022-11-07T01:28:08.622Z,80.80
2022-11-07T01:30:39.259Z,80.90
2022-11-07T01:33:05.954Z,80.40
2022-11-07T01:35:33.993Z,81.00
2022-11-07T01:38:00.693Z,81.00
2022-11-07T01:40:27.976Z,80.00
2022-11-07T01:42:54.666Z,81.10
2022-11-07T01:45:24.761Z,81.00
2022-11-07T01:47:53.518Z,80.20
2022-11-07T01:50:22.939Z,79.90
2022-11-07T01:52:53.050Z,79.90
2022-11-07T01:55:23.538Z,80.50
2022-11-07T01:58:11.254Z,81.20
2022-11-07T02:00:38.635Z,80.40
2022-11-07T02:03:13.069Z,81.00
2022-11-07T02:05:46.469Z,81.30
2022-11-07T02:08:15.115Z,81.10
2022-11-07T02:10:42.806Z,80.40
2022-11-07T02:13:13.553Z,80.10
2022-11-07T02:15:40.662Z,79.40
2022-11-07T02:18:07.451Z,79.60
2022-11-07T02:20:34.584Z,79.70
2022-11-07T02:23:13.733Z,80.30
2022-11-07T02:25:43.902Z,79.70
2022-11-07T02:28:12.181Z,79.50
2022-11-07T02:30:39.002Z,79.40
2022-11-07T02:33:18.413Z,79.00
2022-11-07T02:35:50.782Z,79.40
2022-11-07T02:38:26.459Z,79.20
2022-11-07T02:40:58.343Z,79.00
2022-11-07T02:43:28.510Z,79.00
2022-11-07T02:45:58.327Z,79.40
2022-11-07T02:48:30.112Z,79.10
2022-11-07T02:50:57.359Z,79.90
2022-11-07T02:53:24.134Z,81.10
2022-11-07T02:55:50.990Z,81.00
2022-11-07T02:58:17.678Z,80.20
2022-11-07T03:00:46.953Z,80.10
2022-11-07T03:03:14.491Z,81.50
2022-11-07T03:05:41.351Z,81.00
2022-11-07T03:08:08.204Z,81.10
2022-11-07T03:10:35.027Z,80.00
2022-11-07T03:13:02.090Z,80.50
2022-11-07T03:15:28.732Z,79.80
2022-11-07T03:17:55.361Z,79.70
2022-11-07T03:20:22.068Z,80.10
2022-11-07T03:22:48.656Z,80.20
2022-11-07T03:25:15.291Z,80.60
2022-11-07T03:27:49.819Z,81.10
2022-11-07T03:30:17.166Z,83.00
2022-11-07T03:32:43.932Z,82.60
2022-11-07T03:35:11.111Z,81.50
2022-11-07T03:37:41.092Z,80.90
2022-11-07T03:40:08.123Z,81.60
2022-11-07T03:42:39.601Z,80.80
2022-11-07T03:45:07.302Z,80.40
2022-11-07T03:47:38.167Z,80.40
2022-11-07T03:50:06.212Z,80.30
2022-11-07T03:52:32.862Z,80.30
2022-11-07T03:54:59.625Z,80.20
2022-11-07T03:57:26.368Z,80.40
2022-11-07T03:59:53.013Z,80.40
2022-11-07T04:02:19.803Z,82.20
2022-11-07T04:04:46.496Z,81.30
2022-11-07T04:07:13.196Z,81.30
2022-11-07T04:09:39.809Z,81.90
2022-11-07T04:12:25.427Z,83.10
2022-11-07T04:15:11.013Z,83.10
2022-11-07T04:17:37.659Z,84.10
2022-11-07T04:20:05.202Z,82.30
2022-11-07T04:22:32.212Z,82.00
2022-11-07T04:24:58.927Z,82.70
2022-11-07T04:27:43.582Z,82.60
2022-11-07T04:30:19.872Z,82.30
2022-11-07T04:32:48.128Z,83.30
2022-11-07T04:35:15.804Z,84.30
2022-11-07T04:37:42.803Z,84.80
2022-11-07T04:40:11.339Z,83.40
2022-11-07T04:42:38.275Z,85.50
2022-11-07T04:45:06.282Z,83.50
2022-11-07T04:47:36.466Z,82.90
2022-11-07T04:50:07.709Z,83.20
2022-11-07T04:52:34.651Z,82.80
2022-11-07T04:55:02.975Z,85.20
2022-11-07T04:57:29.629Z,85.40
2022-11-07T04:59:56.307Z,85.30
2022-11-07T05:02:25.372Z,85.50
2022-11-07T05:04:52.649Z,84.40
2022-11-07T05:07:20.245Z,84.80
2022-11-07T05:09:46.905Z,83.40
2022-11-07T05:12:13.545Z,83.10
2022-11-07T05:14:40.198Z,84.30
2022-11-07T05:17:06.905Z,84.00
2022-11-07T05:19:33.580Z,84.50
2022-11-07T05:22:19.118Z,83.70
2022-11-07T05:24:45.820Z,84.10
2022-11-07T05:27:20.028Z,85.40
2022-11-07T05:29:47.093Z,85.60
2022-11-07T05:32:14.853Z,84.50
2022-11-07T05:34:41.513Z,84.00
2022-11-07T05:37:09.453Z,83.70
2022-11-07T05:39:36.624Z,84.20
2022-11-07T05:42:04.135Z,84.80
2022-11-07T05:44:31.376Z,84.40
2022-11-07T05:46:58.538Z,86.50
2022-11-07T05:49:25.905Z,84.80
2022-11-07T05:51:53.078Z,85.90
2022-11-07T05:54:19.755Z,85.80
2022-11-07T05:56:46.492Z,86.90
2022-11-07T05:59:13.741Z,84.50
2022-11-07T06:01:40.560Z,85.00
2022-11-07T06:04:07.968Z,85.00
2022-11-07T06:06:34.823Z,86.90
2022-11-07T06:09:01.752Z,86.50
2022-11-07T06:11:28.417Z,85.10
2022-11-07T06:13:55.056Z,84.40
2022-11-07T06:16:21.926Z,86.10
2022-11-07T06:18:48.784Z,84.70
2022-11-07T06:21:16.748Z,85.20
2022-11-07T06:23:43.709Z,84.50
2022-11-07T06:26:10.543Z,84.70
2022-11-07T06:28:37.529Z,84.20
2022-11-07T06:31:05.013Z,83.80
2022-11-07T06:33:32.108Z,84.80
2022-11-07T06:36:10.859Z,84.70
2022-11-07T06:38:38.589Z,83.90
2022-11-07T06:41:07.633Z,84.70
2022-11-07T06:43:34.637Z,84.10
2022-11-07T06:46:10.807Z,84.50
2022-11-07T06:48:37.872Z,84.90
2022-11-07T06:51:06.440Z,85.60
2022-11-07T06:53:33.403Z,84.10
2022-11-07T06:56:02.911Z,84.80
2022-11-07T06:58:30.015Z,86.40
2022-11-07T07:01:02.962Z,85.30
2022-11-07T07:03:29.829Z,84.90
2022-11-07T07:06:04.383Z,85.00
2022-11-07T07:08:31.655Z,85.40
2022-11-07T07:11:06.252Z,85.20
2022-11-07T07:13:33.223Z,85.50
2022-11-07T07:16:00.367Z,85.90
2022-11-07T07:18:27.898Z,86.10
2022-11-07T07:21:06.923Z,87.20
2022-11-07T07:23:37.862Z,87.00
2022-11-07T07:26:06.480Z,86.40
2022-11-07T07:28:33.214Z,85.70
2022-11-07T07:31:13.204Z,86.90
2022-11-07T07:33:43.622Z,87.00
2022-11-07T07:36:10.871Z,86.40
2022-11-07T07:38:37.976Z,85.40
2022-11-07T07:41:05.506Z,85.00
2022-11-07T07:43:32.257Z,86.80
2022-11-07T07:46:07.316Z,86.40
2022-11-07T07:48:34.721Z,86.20
2022-11-07T07:51:03.017Z,86.10
2022-11-07T07:53:29.882Z,86.90
2022-11-07T07:55:58.072Z,86.70
2022-11-07T07:58:25.643Z,86.60
2022-11-07T08:00:54.188Z,86.60
2022-11-07T08:03:20.938Z,86.70
2022-11-07T08:05:56.439Z,85.80
2022-11-07T08:08:24.688Z,85.80
2022-11-07T08:10:54.620Z,86.50
2022-11-07T08:13:23.649Z,86.80
2022-11-07T08:15:51.810Z,86.80
2022-11-07T08:18:21.743Z,85.40
2022-11-07T08:20:53.152Z,86.20
2022-11-07T08:23:21.267Z,87.20
2022-11-07T08:25:52.989Z,85.60
2022-11-07T08:28:21.615Z,86.70
2022-11-07T08:31:03.549Z,85.50
2022-11-07T08:33:30.567Z,86.00
2022-11-07T08:36:02.937Z,86.60
2022-11-07T08:38:31.059Z,86.80
2022-11-07T08:40:58.844Z,85.80
2022-11-07T08:43:25.738Z,86.00
2022-11-07T08:45:54.010Z,85.50
2022-11-07T08:48:21.387Z,85.60
2022-11-07T08:50:53.302Z,85.60
2022-11-07T08:53:20.978Z,85.90
2022-11-07T08:55:48.031Z,85.70
2022-11-07T08:58:15.226Z,85.40
2022-11-07T09:00:42.454Z,85.30
2022-11-07T09:05:58.502Z,85.00
2022-11-07T09:08:25.417Z,84.90
2022-11-07T09:10:52.159Z,84.50
2022-11-07T09:13:20.625Z,85.00
2022-11-07T09:15:51.070Z,85.50
2022-11-07T09:18:19.619Z,85.50
2022-11-07T09:20:46.398Z,85.60
2022-11-07T09:23:13.309Z,85.20
2022-11-07T09:25:40.201Z,85.10
2022-11-07T09:28:06.920Z,84.90
2022-11-07T09:30:33.952Z,84.30
2022-11-07T09:33:00.616Z,85.00
2022-11-07T09:35:27.599Z,84.80
2022-11-07T09:37:54.555Z,84.90
2022-11-07T09:40:40.635Z,84.20
2022-11-07T09:43:30.405Z,84.00
2022-11-07T09:46:18.636Z,84.70
2022-11-07T09:48:55.758Z,84.30
2022-11-07T09:51:38.145Z,84.60
2022-11-07T09:54:15.624Z,84.00
2022-11-07T09:56:44.270Z,84.10
2022-11-07T09:59:26.548Z,84.10
2022-11-07T10:01:53.273Z,84.00
2022-11-07T10:04:25.247Z,83.60
2022-11-07T10:07:06.965Z,83.60
2022-11-07T10:09:55.849Z,83.80
2022-11-07T10:13:02.919Z,83.80
2022-11-07T10:15:32.608Z,83.30
2022-11-07T10:18:23.648Z,83.80
2022-11-07T10:21:10.231Z,83.60
2022-11-07T10:23:51.590Z,83.40
2022-11-07T10:26:21.955Z,83.40
2022-11-07T10:29:16.108Z,83.30
2022-11-07T10:32:15.536Z,83.40
2022-11-07T10:34:58.128Z,83.20
2022-11-07T10:37:24.833Z,83.20
2022-11-07T10:39:51.569Z,83.10
2022-11-07T10:42:20.995Z,83.30
2022-11-07T10:44:48.905Z,83.00
2022-11-07T10:47:23.941Z,83.20
2022-11-07T10:50:04.354Z,82.70
2022-11-07T10:52:31.032Z,82.60
2022-11-07T10:55:16.782Z,82.50
2022-11-07T10:57:45.852Z,82.40
2022-11-07T11:00:30.376Z,82.20
2022-11-07T11:02:57.804Z,81.90
2022-11-07T11:05:27.476Z,81.80
2022-11-07T11:08:08.090Z,81.60
2022-11-07T11:10:38.684Z,81.80
2022-11-07T11:13:06.701Z,81.50
2022-11-07T11:15:44.932Z,81.70
2022-11-07T11:18:18.046Z,81.60
2022-11-07T11:21:03.477Z,81.40
2022-11-07T11:23:37.518Z,81.80
2022-11-07T11:26:15.515Z,81.70
2022-11-07T11:28:46.925Z,81.40
2022-11-07T11:31:29.637Z,81.60
2022-11-07T11:34:08.797Z,81.40
2022-11-07T11:36:40.514Z,81.40
2022-11-07T11:39:29.373Z,81.50
2022-11-07T11:41:58.785Z,81.40
2022-11-07T11:44:37.562Z,81.10
2022-11-07T11:47:10.915Z,81.30
2022-11-07T11:50:22.001Z,81.40
2022-11-07T11:52:48.909Z,81.20
2022-11-07T11:55:19.122Z,81.10
2022-11-07T11:57:49.622Z,81.00
2022-11-07T12:00:19.550Z,81.10
2022-11-07T12:03:09.391Z,81.00
2022-11-07T12:06:02.960Z,81.00
2022-11-07T12:08:43.661Z,80.90
2022-11-07T12:11:30.375Z,81.10
2022-11-07T12:14:21.473Z,81.20
2022-11-07T12:17:24.485Z,81.10
2022-11-07T12:20:04.894Z,80.90
2022-11-07T12:22:47.959Z,81.00
2022-11-07T12:25:29.482Z,81.10
2022-11-07T12:28:58.335Z,81.10
2022-11-07T12:31:55.068Z,80.80
2022-11-07T12:34:30.742Z,80.50
2022-11-07T12:37:02.884Z,80.60
2022-11-07T12:39:58.811Z,81.10
2022-11-07T12:42:46.556Z,80.20
2022-11-07T12:45:37.916Z,81.00
2022-11-07T12:48:15.243Z,80.00
2022-11-07T12:50:48.146Z,79.90
2022-11-07T12:53:33.568Z,79.80
2022-11-07T12:56:07.745Z,80.00
2022-11-07T12:58:37.282Z,79.80
2022-11-07T13:01:05.784Z,79.80
2022-11-07T13:03:41.593Z,79.70
2022-11-07T13:06:23.626Z,79.70
2022-11-07T13:08:57.943Z,79.60
2022-11-07T13:11:29.014Z,79.50
2022-11-07T13:14:07.603Z,79.60
2022-11-07T13:16:36.558Z,80.10
2022-11-07T13:19:27.966Z,80.00
2022-11-07T13:22:04.168Z,80.00
2022-11-07T13:24:33.031Z,79.70
2022-11-07T13:26:59.991Z,79.80
2022-11-07T13:29:37.927Z,79.80
2022-11-07T13:32:06.254Z,79.90
2022-11-07T13:34:49.556Z,80.00
2022-11-07T13:37:29.705Z,80.00
2022-11-07T13:40:29.394Z,80.10
2022-11-07T13:43:10.450Z,80.10
2022-11-07T13:46:03.332Z,80.10
2022-11-07T13:48:50.591Z,80.20
2022-11-07T13:51:22.922Z,80.30
2022-11-07T13:53:55.424Z,80.20
2022-11-07T13:56:37.084Z,80.30
2022-11-07T13:59:10.369Z,80.20
2022-11-07T14:01:42.829Z,80.20
2022-11-07T14:04:20.526Z,80.10
2022-11-07T14:06:48.705Z,80.10
2022-11-07T14:09:19.822Z,80.10
2022-11-07T14:11:48.969Z,80.10
2022-11-07T14:14:15.731Z,80.10
2022-11-07T14:16:45.752Z,80.00
2022-11-07T14:19:18.597Z,80.10
2022-11-07T14:21:46.714Z,80.00
2022-11-07T14:24:20.652Z,80.00
2022-11-07T14:27:03.320Z,80.00
2022-11-07T14:29:30.245Z,79.80
2022-11-07T14:32:02.639Z,79.80
2022-11-07T14:34:29.721Z,79.80
2022-11-07T14:36:59.591Z,79.80
2022-11-07T14:39:29.656Z,79.80
2022-11-07T14:41:58.768Z,79.80
2022-11-07T14:44:47.564Z,79.80
2022-11-07T14:47:27.175Z,79.80
2022-11-07T14:49:55.027Z,79.70
2022-11-07T14:52:23.738Z,79.70
2022-11-07T14:54:57.108Z,79.70
2022-11-07T14:57:23.922Z,79.80
2022-11-07T14:59:50.940Z,79.80
2022-11-07T15:02:23.305Z,79.70
2022-11-07T15:04:50.626Z,79.70
2022-11-07T15:07:31.940Z,79.70
2022-11-07T15:10:12.420Z,79.60
2022-11-07T15:12:50.855Z,79.70
2022-11-07T15:15:34.538Z,79.60
2022-11-07T15:18:04.257Z,79.60
2022-11-07T15:20:31.799Z,79.40
2022-11-07T15:23:00.855Z,79.60
2022-11-07T15:25:48.900Z,79.60
2022-11-07T15:28:19.071Z,79.60
2022-11-07T15:30:48.259Z,79.70
2022-11-07T15:33:17.221Z,79.70
2022-11-07T15:35:45.742Z,79.70
2022-11-07T15:38:24.552Z,79.60
2022-11-07T15:40:51.867Z,79.50
2022-11-07T15:43:19.336Z,79.50
2022-11-07T15:45:48.135Z,79.50
2022-11-07T15:48:18.931Z,79.60
2022-11-07T15:50:48.517Z,79.50
2022-11-07T15:53:16.426Z,79.40
2022-11-07T15:55:43.147Z,79.50
2022-11-07T15:58:14.555Z,79.40
2022-11-07T16:00:42.075Z,79.50
2022-11-07T16:03:16.968Z,79.50
2022-11-07T16:05:45.520Z,79.40
2022-11-07T16:08:15.678Z,79.60
2022-11-07T16:10:52.515Z,79.70
2022-11-07T16:13:19.373Z,79.80
2022-11-07T16:15:49.767Z,80.60
2022-11-07T16:18:19.519Z,79.90
2022-11-07T16:20:47.522Z,80.00
2022-11-07T16:23:14.599Z,80.10
2022-11-07T16:25:44.107Z,80.10
2022-11-07T16:28:31.050Z,80.10
2022-11-07T16:30:58.472Z,80.30
2022-11-07T16:33:26.453Z,80.30
2022-11-07T16:35:57.886Z,80.40
2022-11-07T16:38:26.150Z,80.50
2022-11-07T16:40:53.412Z,80.40
2022-11-07T16:43:21.629Z,80.50
2022-11-07T16:45:51.593Z,80.40
2022-11-07T16:48:19.511Z,80.40
2022-11-07T16:50:46.707Z,80.60
2022-11-07T16:53:14.015Z,80.60
2022-11-07T16:55:48.245Z,80.40
2022-11-07T16:58:30.164Z,80.70
2022-11-07T17:00:59.462Z,80.60
2022-11-07T17:03:26.888Z,80.90
2022-11-07T17:05:55.243Z,80.80
2022-11-07T17:08:25.900Z,80.80
2022-11-07T17:10:52.640Z,80.90
2022-11-07T17:13:19.401Z,80.90
2022-11-07T17:15:46.159Z,81.10
2022-11-07T17:18:20.835Z,81.20
2022-11-07T17:20:51.685Z,81.30
2022-11-07T17:23:19.189Z,81.30
2022-11-07T17:25:50.698Z,81.30
2022-11-07T17:28:17.903Z,81.30
2022-11-07T17:30:44.753Z,81.20
2022-11-07T17:33:11.629Z,81.20
2022-11-07T17:35:39.168Z,81.20
2022-11-07T17:38:06.105Z,81.10
2022-11-07T17:40:34.749Z,81.20
2022-11-07T17:43:02.878Z,81.10
2022-11-07T17:45:29.614Z,81.10
2022-11-07T17:47:56.404Z,81.10
2022-11-07T17:50:23.637Z,81.10
2022-11-07T17:52:52.209Z,81.10
2022-11-07T17:55:20.207Z,81.20
2022-11-07T17:57:46.980Z,81.30
2022-11-07T18:00:20.377Z,81.20
2022-11-07T18:02:49.515Z,81.20
2022-11-07T18:05:18.746Z,81.30
2022-11-07T18:07:46.207Z,81.40
2022-11-07T18:10:18.369Z,81.30
2022-11-07T18:12:48.274Z,81.90
2022-11-07T18:15:14.996Z,81.30
2022-11-07T18:17:42.209Z,81.20
2022-11-07T18:20:09.956Z,81.10
2022-11-07T18:22:37.517Z,81.10
2022-11-07T18:25:08.621Z,80.90
2022-11-07T18:27:35.746Z,80.70
2022-11-07T18:30:03.095Z,81.00
2022-11-07T18:32:35.816Z,81.10
2022-11-07T18:35:04.597Z,81.50
2022-11-07T18:37:31.710Z,81.60
2022-11-07T18:39:58.429Z,81.60
2022-11-07T18:42:25.117Z,81.60
2022-11-07T18:44:52.137Z,81.70
2022-11-07T18:47:18.880Z,81.90
2022-11-07T18:49:45.691Z,81.80
2022-11-07T18:52:12.728Z,81.90
2022-11-07T18:54:39.435Z,82.10
2022-11-07T18:57:06.167Z,82.20
2022-11-07T18:59:33.002Z,82.10
2022-11-07T19:02:00.009Z,82.20
2022-11-07T19:04:26.781Z,82.20
2022-11-07T19:06:59.680Z,82.30
2022-11-07T19:09:31.801Z,82.40
2022-11-07T19:12:00.340Z,82.50
2022-11-07T19:14:28.036Z,82.20
2022-11-07T19:16:54.778Z,82.60
2022-11-07T19:19:21.742Z,82.60
2022-11-07T19:21:48.809Z,82.50
2022-11-07T19:24:15.623Z,82.80
2022-11-07T19:26:42.713Z,82.90
2022-11-07T19:29:12.584Z,83.60
2022-11-07T19:31:39.401Z,82.90
2022-11-07T19:34:06.457Z,83.20
2022-11-07T19:36:33.319Z,83.00
2022-11-07T19:39:00.255Z,83.00
2022-11-07T19:41:26.945Z,83.20
2022-11-07T19:43:53.715Z,83.20
2022-11-07T19:46:22.760Z,83.30
2022-11-07T19:48:50.621Z,83.10
2022-11-07T19:51:22.124Z,83.10
2022-11-07T19:53:54.707Z,83.20
2022-11-07T19:56:26.730Z,83.20
2022-11-07T19:58:54.399Z,83.10
2022-11-07T20:01:26.376Z,83.10
2022-11-07T20:03:53.556Z,83.80
2022-11-07T20:06:26.317Z,83.30
2022-11-07T20:08:53.745Z,83.30
2022-11-07T20:11:23.155Z,83.40
2022-11-07T20:13:50.408Z,83.40
2022-11-07T20:16:17.475Z,83.20
2022-11-07T20:18:46.585Z,82.90
2022-11-07T20:21:22.291Z,83.50
2022-11-07T20:23:49.808Z,83.30
2022-11-07T20:26:19.461Z,83.40
2022-11-07T20:28:47.929Z,83.20
2022-11-07T20:31:17.529Z,83.20
2022-11-07T20:33:44.524Z,83.60
2022-11-07T20:36:13.518Z,83.30
2022-11-07T20:38:41.174Z,83.50
2022-11-07T20:41:08.956Z,83.70
2022-11-07T20:43:36.197Z,83.30
2022-11-07T20:46:05.637Z,83.00
2022-11-07T20:48:32.696Z,82.60
2022-11-07T20:51:06.327Z,82.60
2022-11-07T20:53:33.084Z,82.50
2022-11-07T20:56:05.446Z,82.60
2022-11-07T20:58:33.387Z,82.40
2022-11-07T21:01:00.685Z,82.80
2022-11-07T21:03:27.827Z,83.40
2022-11-07T21:05:54.771Z,83.10
2022-11-07T21:08:21.646Z,83.10
2022-11-07T21:10:50.117Z,83.60
2022-11-07T21:13:17.279Z,83.20
2022-11-07T21:15:44.883Z,82.60
2022-11-07T21:18:12.951Z,82.50
2022-11-07T21:20:40.105Z,83.10
2022-11-07T21:23:07.733Z,83.20
2022-11-07T21:25:38.815Z,83.10
2022-11-07T21:28:06.569Z,82.80
2022-11-07T21:30:33.218Z,83.10
2022-11-07T21:32:59.842Z,83.10
2022-11-07T21:35:30.966Z,83.40
2022-11-07T21:38:00.091Z,84.40
2022-11-07T21:40:26.825Z,84.40
2022-11-07T21:42:54.945Z,84.00
2022-11-07T21:45:22.310Z,84.00
2022-11-07T21:47:49.083Z,84.30
2022-11-07T21:50:38.420Z,83.30
2022-11-07T21:53:04.213Z,83.00
2022-11-07T21:55:30.885Z,83.60
2022-11-07T21:57:57.584Z,84.90
2022-11-07T22:00:25.144Z,84.80
2022-11-07T22:02:51.801Z,83.70
2022-11-07T22:05:18.596Z,83.30
2022-11-07T22:07:45.405Z,83.10
2022-11-07T22:10:12.224Z,83.30
2022-11-07T22:12:38.948Z,83.20
2022-11-07T22:15:06.069Z,83.40
2022-11-07T22:17:32.770Z,83.30
2022-11-07T22:19:59.503Z,83.00
2022-11-07T22:22:26.168Z,82.90
2022-11-07T22:24:52.832Z,84.10
2022-11-07T22:27:19.450Z,84.40
2022-11-07T22:29:46.897Z,83.90
2022-11-07T22:32:13.553Z,84.00
2022-11-07T22:34:40.201Z,83.90
2022-11-07T22:37:06.936Z,83.90
2022-11-07T22:39:33.602Z,84.00
2022-11-07T22:42:00.265Z,84.40
2022-11-07T22:44:27.010Z,84.70
2022-11-07T22:46:53.686Z,83.80
2022-11-07T22:49:20.336Z,85.20
2022-11-07T22:51:47.024Z,84.00
2022-11-07T22:54:13.989Z,85.40
2022-11-07T22:56:41.226Z,85.20
2022-11-07T22:59:08.603Z,85.10
2022-11-07T23:01:40.968Z,84.70
2022-11-07T23:04:10.100Z,85.40
2022-11-07T23:06:36.752Z,85.50
2022-11-07T23:09:03.588Z,84.70
2022-11-07T23:11:51.078Z,86.10
2022-11-07T23:14:19.801Z,85.10
2022-11-07T23:16:51.989Z,85.30
2022-11-07T23:19:21.700Z,85.50
2022-11-07T23:21:49.345Z,85.50
2022-11-07T23:24:16.423Z,85.00
2022-11-07T23:26:43.102Z,84.30
2022-11-07T23:29:15.629Z,84.60
2022-11-07T23:31:45.351Z,84.40
2022-11-07T23:34:12.368Z,84.40
2022-11-07T23:36:43.536Z,83.80
2022-11-07T23:39:16.657Z,84.20
2022-11-07T23:41:43.719Z,83.70
2022-11-07T23:44:11.211Z,84.10
2022-11-07T23:46:57.431Z,83.80
2022-11-07T23:49:42.624Z,84.10
2022-11-07T23:52:09.695Z,84.00
2022-11-07T23:54:54.684Z,84.10
2022-11-07T23:57:21.553Z,84.80
